Time;durP1;ratioP1;P1;durP2;ratioP2;P2;SDS_P1;SDS_P2;PMS_P1;PMS_P2;Temp;Humidity;BMP_temperature;BMP_pressure;BME280_temperature;BME280_humidity;BME280_pressure;Samples;Min_cycle;Max_cycle;Signal;HPM_P1;HPM_P2
2023/04/24 00:01:36;;;;;;;1.30;1.00;;;;;;;12.95;81.58;97768.59;5078362;28;41322;-78
2023/04/24 00:04:04;;;;;;;1.20;1.00;;;;;;;12.80;81.92;97752.19;5094996;28;40020;-79
2023/04/24 00:06:33;;;;;;;1.63;1.00;;;;;;;12.90;81.40;97770.81;5112610;28;42267;-78
2023/04/24 00:09:03;;;;;;;0.97;0.80;;;;;;;12.87;81.62;97760.44;5078386;28;41705;-79
2023/04/24 00:11:31;;;;;;;1.10;0.70;;;;;;;12.86;81.54;97758.75;5094958;28;42451;-80
2023/04/24 00:13:58;;;;;;;1.40;0.93;;;;;;;12.78;81.57;97756.78;5113127;28;40922;-78
2023/04/24 00:16:26;;;;;;;2.87;0.90;;;;;;;12.83;81.88;97759.06;5094843;28;40505;-79
2023/04/24 00:18:56;;;;;;;3.20;1.00;;;;;;;12.74;81.66;97750.06;5094728;28;42602;-79
2023/04/24 00:21:25;;;;;;;1.00;1.00;;;;;;;12.80;81.07;97757.50;5113216;28;43468;-80
2023/04/24 00:23:53;;;;;;;1.00;0.90;;;;;;;12.80;81.52;97752.19;5094787;28;40997;-78
2023/04/24 00:26:22;;;;;;;2.10;0.80;;;;;;;12.80;81.32;97759.31;5077961;28;42183;-80
2023/04/24 00:28:50;;;;;;;1.20;0.90;;;;;;;12.79;80.56;97757.63;5077725;28;41494;-79
2023/04/24 00:31:18;;;;;;;1.47;0.83;;;;;;;12.80;80.64;97760.16;5095015;28;42310;-79
2023/04/24 00:33:47;;;;;;;2.70;1.03;;;;;;;12.81;80.60;97759.19;5094840;28;41684;-79
2023/04/24 00:36:15;;;;;;;2.10;1.20;;;;;;;12.70;80.69;97731.91;5094981;28;41862;-79
2023/04/24 00:38:43;;;;;;;0.70;0.70;;;;;;;12.77;80.36;97741.00;5094319;28;41847;-79
2023/04/24 00:41:11;;;;;;;2.03;0.90;;;;;;;12.77;80.02;97747.16;5094960;28;43042;-79
2023/04/24 00:43:40;;;;;;;0.70;0.70;;;;;;;12.73;79.92;97744.91;5094570;28;41730;-79
2023/04/24 00:46:08;;;;;;;1.30;0.70;;;;;;;12.73;79.93;97747.56;5094760;28;41811;-79
2023/04/24 00:48:36;;;;;;;0.70;0.70;;;;;;;12.71;79.43;97749.53;5112856;28;42973;-79
2023/04/24 00:51:04;;;;;;;1.43;0.90;;;;;;;12.71;80.07;97747.72;5094741;28;42287;-79
2023/04/24 00:53:32;;;;;;;0.87;0.73;;;;;;;12.72;79.71;97751.22;5077527;28;40077;-79
2023/04/24 00:56:01;;;;;;;1.33;1.23;;;;;;;12.63;79.69;97736.06;5077474;28;42985;-79
2023/04/24 00:58:30;;;;;;;1.00;0.70;;;;;;;12.62;79.49;97721.09;5077221;28;41930;-79
2023/04/24 01:01:00;;;;;;;1.33;0.80;;;;;;;12.74;79.59;97743.91;5112562;28;43245;-79
2023/04/24 01:03:32;;;;;;;1.37;0.70;;;;;;;12.73;79.46;97737.78;5091532;28;41909;-79
2023/04/24 01:06:00;;;;;;;1.23;0.70;;;;;;;12.68;79.32;97737.34;5077610;28;40731;-79
2023/04/24 01:08:29;;;;;;;0.83;0.77;;;;;;;12.68;79.58;97739.16;5094088;28;43769;-79
2023/04/24 01:10:58;;;;;;;1.10;0.90;;;;;;;12.66;79.28;97743.75;5094351;28;42224;-79
2023/04/24 01:13:26;;;;;;;1.00;0.70;;;;;;;12.64;79.61;97738.59;5094213;28;40904;-79
2023/04/24 01:15:54;;;;;;;1.30;0.67;;;;;;;12.65;79.37;97737.63;5077142;28;42143;-79
2023/04/24 01:18:23;;;;;;;0.70;0.60;;;;;;;12.50;79.00;97726.53;5094096;28;42859;-79
2023/04/24 01:20:53;;;;;;;0.97;0.80;;;;;;;12.53;78.95;97736.88;5076780;28;40860;-79
2023/04/24 01:23:22;;;;;;;1.80;0.87;;;;;;;12.61;78.62;97743.34;5112081;28;41964;-79
2023/04/24 01:25:52;;;;;;;1.67;0.80;;;;;;;12.63;78.39;97738.72;5077706;28;40718;-79
2023/04/24 01:28:20;;;;;;;1.23;0.60;;;;;;;12.63;78.71;97736.91;5093967;28;43288;-79
2023/04/24 01:30:48;;;;;;;1.80;0.97;;;;;;;12.65;78.58;97729.63;5077333;28;40989;-78
2023/04/24 01:33:16;;;;;;;1.13;0.80;;;;;;;12.69;78.29;97741.69;5094036;28;40975;-79
2023/04/24 01:35:44;;;;;;;3.67;0.90;;;;;;;12.61;78.02;97714.13;5094180;28;41694;-79
2023/04/24 01:38:12;;;;;;;1.20;0.70;;;;;;;12.76;78.20;97734.00;5076745;28;42104;-79
2023/04/24 01:40:41;;;;;;;2.00;0.90;;;;;;;12.69;78.29;97725.75;5077332;28;42272;-80
2023/04/24 01:43:09;;;;;;;0.67;0.60;;;;;;;12.80;78.27;97732.75;5076728;28;39833;-79
2023/04/24 01:45:36;;;;;;;1.67;0.80;;;;;;;12.84;77.68;97745.63;5077069;28;40327;-79
2023/04/24 01:48:06;;;;;;;2.27;0.90;;;;;;;12.82;78.39;97738.78;5112000;28;42821;-79
2023/04/24 01:50:33;;;;;;;0.73;0.70;;;;;;;12.88;77.56;97743.53;5077016;28;42413;-79
2023/04/24 01:53:01;;;;;;;1.57;0.73;;;;;;;12.80;77.17;97722.13;5093773;28;41969;-78
2023/04/24 01:55:29;;;;;;;1.47;0.80;;;;;;;12.90;77.42;97728.28;5093561;28;41068;-79
2023/04/24 01:57:58;;;;;;;0.77;0.70;;;;;;;12.84;77.47;97719.06;5093772;28;42638;-79
2023/04/24 02:00:26;;;;;;;1.37;0.90;;;;;;;12.87;77.37;97731.22;5076764;28;42372;-79
2023/04/24 02:02:54;;;;;;;1.80;0.80;;;;;;;12.87;77.46;97733.88;5093856;28;41913;-79
2023/04/24 02:05:22;;;;;;;0.80;0.80;;;;;;;12.74;77.72;97707.56;5093673;28;42739;-79
2023/04/24 02:07:49;;;;;;;1.60;0.80;;;;;;;12.72;77.87;97708.72;5076542;28;41999;-79
2023/04/24 02:10:17;;;;;;;1.43;0.90;;;;;;;12.80;77.65;97717.66;5076272;28;41386;-79
2023/04/24 02:12:44;;;;;;;1.67;1.30;;;;;;;12.67;77.81;97692.31;5076805;28;40107;-78
2023/04/24 02:15:14;;;;;;;0.77;0.67;;;;;;;12.87;77.13;97718.78;5076400;28;41680;-79
2023/04/24 02:17:42;;;;;;;1.10;0.73;;;;;;;12.89;77.67;97710.66;5076637;28;41814;-79
2023/04/24 02:20:10;;;;;;;0.60;0.60;;;;;;;12.90;77.35;97709.69;5076748;28;42597;-79
2023/04/24 02:22:39;;;;;;;0.77;0.77;;;;;;;12.75;77.15;97679.19;5093546;28;39969;-78
2023/04/24 02:25:08;;;;;;;0.60;0.60;;;;;;;12.89;77.08;97710.66;5111323;28;42739;-79
2023/04/24 02:27:35;;;;;;;1.27;0.67;;;;;;;12.85;76.88;97710.13;5093353;28;42770;-79
2023/04/24 02:30:08;;;;;;;0.63;0.63;;;;;;;12.80;77.09;97706.19;5079128;28;41082;-79
2023/04/24 02:32:37;;;;;;;1.43;0.70;;;;;;;12.71;77.01;97691.94;5096905;28;40930;-79
2023/04/24 02:35:05;;;;;;;0.70;0.67;;;;;;;12.74;77.18;97701.41;5096668;28;40910;-78
2023/04/24 02:37:33;;;;;;;0.60;0.60;;;;;;;12.63;77.58;97682.94;5079528;28;43177;-78
2023/04/24 02:40:01;;;;;;;1.30;0.87;;;;;;;12.65;77.09;97697.78;5079735;28;41278;-79
2023/04/24 02:42:28;;;;;;;1.47;0.80;;;;;;;12.63;77.27;97698.88;5080015;28;41123;-78
2023/04/24 02:44:56;;;;;;;1.03;0.70;;;;;;;12.51;77.76;97692.84;5114728;28;41479;-79
2023/04/24 02:47:23;;;;;;;1.93;0.70;;;;;;;12.53;77.47;97699.69;5079855;28;42857;-78
2023/04/24 02:49:53;;;;;;;1.43;0.80;;;;;;;12.43;77.97;97682.91;5096614;28;42545;-79
2023/04/24 02:52:20;;;;;;;1.27;0.80;;;;;;;12.47;77.64;97699.44;5114579;28;41736;-79
2023/04/24 02:54:48;;;;;;;0.60;0.60;;;;;;;12.46;77.72;97706.53;5079194;28;42002;-78
2023/04/24 02:57:16;;;;;;;1.40;0.90;;;;;;;12.47;78.38;97705.56;5079315;28;42190;-78
2023/04/24 02:59:44;;;;;;;0.70;0.70;;;;;;;12.50;78.18;97710.59;5096179;28;43236;-79
2023/04/24 03:02:12;;;;;;;1.03;0.57;;;;;;;12.52;78.04;97708.66;5096407;28;39562;-79
2023/04/24 03:04:39;;;;;;;1.30;0.80;;;;;;;12.56;77.63;97710.06;5079156;28;41655;-79
2023/04/24 03:07:08;;;;;;;1.60;0.80;;;;;;;12.53;77.35;97699.69;5079203;28;42536;-79
2023/04/24 03:09:36;;;;;;;1.03;1.00;;;;;;;12.59;77.65;97701.00;5078561;28;41392;-79
2023/04/24 03:12:03;;;;;;;1.47;0.70;;;;;;;12.48;77.37;97686.00;5093205;28;41709;-79
2023/04/24 03:14:32;;;;;;;0.43;0.43;;;;;;;12.52;77.27;97703.34;5095988;28;41694;-79
2023/04/24 03:16:59;;;;;;;1.07;0.70;;;;;;;12.44;77.71;97705.00;5079231;28;41965;-78
2023/04/24 03:19:27;;;;;;;1.27;0.80;;;;;;;12.36;78.18;97700.38;5078960;28;42684;-79
2023/04/24 03:22:08;;;;;;;1.60;0.90;;;;;;;12.36;77.68;97702.19;5078897;28;40040;-79
2023/04/24 03:24:36;;;;;;;1.47;1.00;;;;;;;12.40;78.37;97698.28;5095818;28;41628;-79
2023/04/24 03:27:04;;;;;;;1.20;1.10;;;;;;;12.45;78.07;97701.38;5079280;28;41667;-79
2023/04/24 03:29:53;;;;;;;1.00;0.63;;;;;;;12.42;77.97;97683.88;5078789;28;41639;-78
2023/04/24 03:32:23;;;;;;;2.30;0.70;;;;;;;12.53;77.60;97689.09;5078964;28;39587;-80
2023/04/24 03:34:50;;;;;;;1.70;1.10;;;;;;;12.46;77.58;97677.34;5095804;28;42686;-79
2023/04/24 03:37:19;;;;;;;1.53;0.57;;;;;;;12.58;77.42;97692.19;5078512;28;42896;-78
2023/04/24 03:39:55;;;;;;;1.90;1.00;;;;;;;12.55;77.01;97675.66;5078748;28;41550;-79
2023/04/24 03:42:26;;;;;;;0.73;0.60;;;;;;;12.65;77.09;97691.63;5095861;28;41036;-78
2023/04/24 03:44:56;;;;;;;1.77;0.90;;;;;;;12.69;76.58;97687.72;5078812;28;41706;-80
2023/04/24 03:47:28;;;;;;;1.13;0.70;;;;;;;12.69;76.12;97683.25;5078930;28;42984;-79
2023/04/24 03:49:59;;;;;;;3.30;0.80;;;;;;;12.61;76.04;97674.31;5078706;28;41068;-79
2023/04/24 03:52:28;;;;;;;2.00;0.80;;;;;;;12.58;76.44;97676.25;5078762;28;39983;-80
2023/04/24 03:54:56;;;;;;;0.60;0.60;;;;;;;12.45;76.67;97665.03;5078472;28;41665;-79
2023/04/24 03:57:24;;;;;;;0.83;0.57;;;;;;;12.32;76.33;97664.44;5095278;28;42720;-79
2023/04/24 04:00:08;;;;;;;1.43;0.70;;;;;;;12.32;76.99;97676.88;5095064;28;42421;-78
2023/04/24 04:02:42;;;;;;;1.63;0.70;;;;;;;12.27;77.22;97679.09;5095324;28;41106;-78
2023/04/24 04:05:11;;;;;;;3.70;0.90;;;;;;;12.22;77.15;97679.50;5095172;28;41467;-78
2023/04/24 04:07:40;;;;;;;2.00;0.63;;;;;;;11.96;77.01;97641.16;5078251;28;42004;-78
2023/04/24 04:10:08;;;;;;;1.23;0.40;;;;;;;12.16;76.91;97680.03;5095194;28;42441;-78
2023/04/24 04:12:38;;;;;;;1.10;0.70;;;;;;;12.13;77.04;97690.91;5095914;28;40597;-77
2023/04/24 04:15:06;;;;;;;0.60;0.60;;;;;;;12.07;77.96;97680.84;5078019;28;42292;-79
2023/04/24 04:17:34;;;;;;;1.00;0.80;;;;;;;12.07;77.88;97686.16;5095365;28;43325;-78
2023/04/24 04:20:09;;;;;;;1.57;0.83;;;;;;;12.03;77.79;97684.72;5094839;28;43212;-79
2023/04/24 04:22:39;;;;;;;1.47;1.07;;;;;;;12.00;77.87;97677.03;5078379;28;39876;-79
2023/04/24 04:25:11;;;;;;;2.33;0.93;;;;;;;12.04;77.30;97689.91;5094740;28;41732;-78
2023/04/24 04:27:39;;;;;;;1.10;0.70;;;;;;;12.07;77.53;97696.75;5095222;28;43531;-79
2023/04/24 04:30:12;;;;;;;3.27;0.80;;;;;;;12.10;77.15;97701.81;5094620;28;43129;-79
2023/04/24 04:32:50;;;;;;;0.73;0.70;;;;;;;12.11;77.42;97699.03;5092166;28;41180;-79
2023/04/24 04:35:17;;;;;;;1.00;0.70;;;;;;;12.12;77.01;97699.84;5078061;28;41806;-79
2023/04/24 04:37:47;;;;;;;1.10;0.70;;;;;;;12.12;77.54;97706.00;5094835;28;43666;-78
2023/04/24 04:40:31;;;;;;;2.07;0.83;;;;;;;12.18;77.38;97702.81;5091796;28;43302;-79
2023/04/24 04:43:03;;;;;;;0.80;0.70;;;;;;;12.28;77.16;97716.13;5078002;28;39802;-79
2023/04/24 04:45:40;;;;;;;3.03;1.43;;;;;;;12.33;76.89;97703.28;5078318;28;40598;-79
2023/04/24 04:48:37;;;;;;;1.70;1.10;;;;;;;12.48;76.93;97717.88;5023034;28;41702;-80
2023/04/24 04:51:07;;;;;;;1.43;0.60;;;;;;;12.53;76.75;97726.25;5077269;28;42251;-79
2023/04/24 04:53:36;;;;;;;1.87;0.60;;;;;;;12.51;77.05;97722.91;5077485;28;40941;-78
2023/04/24 04:56:03;;;;;;;1.20;0.80;;;;;;;12.57;77.53;97740.97;5095066;28;42482;-78
2023/04/24 04:58:41;;;;;;;2.73;0.70;;;;;;;12.59;77.88;97746.13;5077735;28;42898;-79
2023/04/24 05:01:12;;;;;;;3.83;1.00;;;;;;;12.57;78.15;97751.59;5078021;28;41147;-79
2023/04/24 05:03:43;;;;;;;1.97;0.80;;;;;;;12.53;78.18;97757.28;5092240;28;40735;-79
2023/04/24 05:06:14;;;;;;;1.00;0.80;;;;;;;12.50;78.68;97753.06;5077893;28;40272;-80
2023/04/24 05:08:44;;;;;;;1.23;0.90;;;;;;;12.53;78.36;97759.94;5077406;28;41838;-78
2023/04/24 05:11:20;;;;;;;1.33;1.00;;;;;;;12.57;77.87;97764.84;5077673;28;42276;-79
2023/04/24 05:13:47;;;;;;;2.80;0.93;;;;;;;12.47;77.39;97747.22;5094601;28;41442;-79
2023/04/24 05:16:20;;;;;;;1.80;1.20;;;;;;;12.59;77.41;97768.22;5077540;28;41723;-79
2023/04/24 05:18:49;;;;;;;1.30;1.00;;;;;;;12.59;77.64;97765.56;5077032;28;42939;-78
2023/04/24 05:21:20;;;;;;;1.73;1.00;;;;;;;12.61;77.43;97760.09;5091175;28;42166;-80
2023/04/24 05:23:53;;;;;;;1.60;0.80;;;;;;;12.61;76.87;97759.28;5077482;28;40868;-79
2023/04/24 05:26:37;;;;;;;0.83;0.83;;;;;;;12.61;75.82;97775.22;5091250;28;42421;-78
2023/04/24 05:29:06;;;;;;;2.30;0.80;;;;;;;12.57;75.26;97769.31;5093950;28;43725;-78
2023/04/24 05:31:33;;;;;;;1.47;1.10;;;;;;;12.62;74.91;97771.56;5077178;28;41649;-78
2023/04/24 05:34:01;;;;;;;1.53;1.00;;;;;;;12.66;74.93;97784.44;5077001;28;39737;-80
2023/04/24 05:36:28;;;;;;;0.80;0.80;;;;;;;12.66;74.41;97788.91;5077056;28;40632;-79
2023/04/24 05:38:58;;;;;;;1.17;0.80;;;;;;;12.51;74.22;97762.72;5093981;28;41706;-79
2023/04/24 05:41:26;;;;;;;2.30;0.93;;;;;;;12.68;74.30;97795.78;5093895;28;41405;-78
2023/04/24 05:43:54;;;;;;;1.27;1.07;;;;;;;12.74;74.06;97799.69;5077105;28;40781;-79
2023/04/24 05:46:22;;;;;;;2.00;1.00;;;;;;;12.89;72.70;97807.16;5094125;28;41713;-79
2023/04/24 05:48:50;;;;;;;1.47;0.80;;;;;;;13.05;71.50;97811.97;5076961;28;41970;-83
2023/04/24 05:51:18;;;;;;;1.43;1.00;;;;;;;13.17;71.46;97816.22;5094355;28;42841;-80
2023/04/24 05:53:45;;;;;;;1.13;1.03;;;;;;;13.30;71.16;97821.28;5076980;28;41080;-84
2023/04/24 05:56:15;;;;;;;2.07;1.57;;;;;;;13.40;70.40;97829.25;5077251;28;43064;-82
2023/04/24 05:58:43;;;;;;;1.90;1.13;;;;;;;13.51;70.12;97839.75;5076834;28;42825;-80
2023/04/24 06:01:10;;;;;;;1.43;0.90;;;;;;;13.66;69.12;97838.38;5094136;28;42184;-80
2023/04/24 06:03:40;;;;;;;1.30;1.00;;;;;;;13.80;67.95;97840.63;5094609;28;40891;-82
2023/04/24 06:06:08;;;;;;;2.30;1.40;;;;;;;13.79;66.77;97854.06;5080626;28;41721;-80
2023/04/24 06:08:37;;;;;;;1.00;0.90;;;;;;;13.81;66.54;97863.59;5097219;28;43677;-80
2023/04/24 06:11:04;;;;;;;3.40;1.13;;;;;;;13.87;66.48;97860.34;5080245;28;42103;-82
2023/04/24 06:13:34;;;;;;;1.03;0.93;;;;;;;13.89;65.11;97861.06;5080383;28;39908;-80
2023/04/24 06:16:22;;;;;;;1.67;0.90;;;;;;;13.93;65.48;97878.44;5055673;28;40836;-82
2023/04/24 06:18:56;;;;;;;2.13;1.10;;;;;;;14.01;64.29;97878.56;5076701;28;43270;-84
2023/04/24 06:21:25;;;;;;;2.43;1.00;;;;;;;13.98;64.01;97864.69;5089900;28;42928;-80
2023/04/24 06:23:52;;;;;;;3.43;2.87;;;;;;;14.19;62.82;97884.03;5079286;28;39855;-77
2023/04/24 06:26:20;;;;;;;0.90;0.90;;;;;;;14.29;62.70;97894.66;5079328;28;40687;-80
2023/04/24 06:28:50;;;;;;;1.53;1.10;;;;;;;14.39;61.93;97890.16;5096610;28;43760;-79
2023/04/24 06:31:17;;;;;;;1.27;1.13;;;;;;;14.56;61.83;97897.44;5109261;28;42498;-79
2023/04/24 06:33:45;;;;;;;1.33;1.17;;;;;;;14.37;60.73;97849.50;5097019;28;41189;-80
2023/04/24 06:36:12;;;;;;;1.10;1.00;;;;;;;14.90;60.74;97896.91;5096526;28;42454;-79
2023/04/24 06:38:40;;;;;;;1.37;1.00;;;;;;;15.19;58.46;97916.28;5096506;28;41817;-84
2023/04/24 06:41:07;;;;;;;1.20;1.10;;;;;;;15.14;58.81;97923.03;5114886;28;42331;-81
2023/04/24 06:43:35;;;;;;;2.40;0.90;;;;;;;14.74;58.42;97869.03;5097239;28;40951;-79
2023/04/24 06:46:04;;;;;;;1.20;1.10;;;;;;;15.02;57.62;97920.56;5096531;28;41585;-79
2023/04/24 06:48:31;;;;;;;1.20;1.10;;;;;;;15.00;57.22;97917.19;5097160;28;43019;-79
2023/04/24 06:50:59;;;;;;;1.30;1.20;;;;;;;15.11;57.62;97916.16;5079094;28;41474;-81
2023/04/24 06:53:27;;;;;;;2.30;1.00;;;;;;;15.06;56.99;97911.31;5096316;28;39993;-80
2023/04/24 06:55:58;;;;;;;1.47;1.20;;;;;;;15.21;56.24;97911.63;5096132;28;42630;-82
2023/04/24 06:58:36;;;;;;;1.50;1.30;;;;;;;14.88;55.29;97886.38;5079911;28;42571;-79
2023/04/24 07:01:05;;;;;;;1.20;1.10;;;;;;;14.86;55.68;97900.84;5095791;28;42337;-80
2023/04/24 07:03:32;;;;;;;1.83;1.27;;;;;;;14.90;54.22;97934.22;5095794;28;41165;-76
2023/04/24 07:06:08;;;;;;;2.87;1.93;;;;;;;15.01;54.79;97928.72;5078695;28;41657;-79
2023/04/24 07:08:50;;;;;;;2.70;1.13;;;;;;;15.18;55.02;97903.94;5079567;28;42884;-82
2023/04/24 07:11:57;;;;;;;;;;;;;;;;;;;;;
2023/04/24 07:14:38;;;;;;;3.30;1.10;;;;;;;15.22;53.77;97867.97;5057849;28;20318;-81
2023/04/24 07:17:23;;;;;;;1.57;1.00;;;;;;;15.57;52.90;97877.06;5113603;28;42733;-79
2023/04/24 07:20:38;;;;;;;1.13;1.00;;;;;;;16.23;51.57;97933.59;5077919;28;42050;-76
2023/04/24 07:23:06;;;;;;;2.90;1.40;;;;;;;17.03;51.30;97942.41;5096018;28;41879;-76
2023/04/24 07:25:34;;;;;;;2.40;1.30;;;;;;;17.77;49.91;97949.78;5095614;28;41992;-77
2023/04/24 07:28:01;;;;;;;1.47;1.20;;;;;;;18.03;48.23;97965.75;5113947;28;42745;-75
2023/04/24 07:30:32;;;;;;;1.67;1.40;;;;;;;18.47;47.76;97966.28;5113078;28;43413;-75
2023/04/24 07:33:01;;;;;;;1.43;1.33;;;;;;;18.79;46.40;97981.59;5113399;28;42505;-84
2023/04/24 07:35:29;;;;;;;1.63;1.20;;;;;;;18.33;45.62;97964.28;5112809;28;41170;-81
2023/04/24 07:37:56;;;;;;;1.87;1.33;;;;;;;17.98;47.34;97979.63;5094484;28;42044;-76
2023/04/24 07:40:24;;;;;;;1.90;1.40;;;;;;;17.71;47.35;97979.88;5095362;28;42379;-79
2023/04/24 07:42:52;;;;;;;1.83;1.40;;;;;;;17.72;48.60;97971.69;5095502;28;42244;-77
2023/04/24 07:45:28;;;;;;;1.43;1.33;;;;;;;17.91;47.96;97973.25;5078311;28;40158;-79
2023/04/24 07:47:56;;;;;;;3.07;1.53;;;;;;;17.63;47.82;97983.38;5078616;28;41675;-80
2023/04/24 07:50:25;;;;;;;1.83;1.60;;;;;;;17.09;47.84;97957.81;5095175;28;42686;-82
2023/04/24 07:52:52;;;;;;;1.60;1.50;;;;;;;17.09;49.14;97949.78;5078556;28;41183;-82
2023/04/24 07:55:20;;;;;;;1.63;1.40;;;;;;;17.55;48.50;97992.19;5095362;28;39834;-81
2023/04/24 07:57:47;;;;;;;1.77;1.67;;;;;;;17.59;47.93;97993.53;5078497;28;40551;-81
2023/04/24 08:00:15;;;;;;;2.13;1.40;;;;;;;17.51;48.31;97988.16;5095008;28;42536;-79
2023/04/24 08:02:43;;;;;;;1.43;1.20;;;;;;;17.28;48.35;97989.69;5078180;28;42138;-78
2023/04/24 08:08:04;;;;;;;1.57;1.43;;;;;;;17.07;47.84;97991.91;5075171;28;43423;-80
2023/04/24 08:10:32;;;;;;;1.83;1.60;;;;;;;16.91;48.18;98003.34;5077216;28;41874;-78
2023/04/24 08:13:00;;;;;;;1.50;1.40;;;;;;;16.75;49.01;97985.34;5094421;28;43234;-76
2023/04/24 08:15:28;;;;;;;3.10;1.80;;;;;;;16.70;49.12;97995.66;5077061;28;39836;-79
2023/04/24 08:17:56;;;;;;;1.87;1.60;;;;;;;16.67;48.71;97992.47;5094752;28;40790;-76
2023/04/24 08:20:24;;;;;;;2.63;1.40;;;;;;;16.73;48.84;98003.38;5077665;28;42746;-80
2023/04/24 08:22:52;;;;;;;1.60;1.40;;;;;;;16.72;49.40;97985.66;5077447;28;41264;-78
2023/04/24 08:25:22;;;;;;;1.80;1.70;;;;;;;16.79;48.55;98010.78;5078044;27;40829;-82
2023/04/24 08:27:50;;;;;;;3.30;2.10;;;;;;;17.02;48.00;98013.78;5094389;28;40631;-80
2023/04/24 08:30:18;;;;;;;2.33;1.67;;;;;;;17.56;47.82;98019.78;5077588;28;41593;-78
2023/04/24 08:32:47;;;;;;;2.70;1.80;;;;;;;17.81;47.03;97981.41;5061164;28;41130;-81
2023/04/24 08:35:15;;;;;;;1.70;1.60;;;;;;;18.23;47.11;98018.03;5077435;28;41027;-78
2023/04/24 08:37:42;;;;;;;1.60;1.50;;;;;;;18.07;47.20;98021.50;5094648;28;41877;-82
2023/04/24 08:40:14;;;;;;;3.13;1.73;;;;;;;17.77;46.67;98032.81;5094453;28;41905;-82
2023/04/24 08:42:45;;;;;;;2.87;1.80;;;;;;;17.46;46.32;98041.31;5092637;28;43205;-75
2023/04/24 08:45:13;;;;;;;1.93;1.30;;;;;;;17.17;47.17;98046.16;5077383;28;39750;-80
2023/04/24 08:47:42;;;;;;;1.83;1.73;;;;;;;16.64;48.31;98028.38;5093807;28;40732;-74
2023/04/24 08:50:12;;;;;;;2.43;1.47;;;;;;;16.12;51.13;98017.47;5076208;28;42815;-74
2023/04/24 08:52:40;;;;;;;1.50;1.40;;;;;;;15.86;51.90;97997.84;5093919;28;40899;-77
2023/04/24 08:55:07;;;;;;;1.53;1.43;;;;;;;16.05;53.20;97989.72;5077381;28;40123;-75
2023/04/24 08:57:39;;;;;;;1.70;1.60;;;;;;;16.78;51.63;97995.72;5112320;28;42811;-74
2023/04/24 09:00:10;;;;;;;1.50;1.40;;;;;;;17.31;50.28;98000.06;5076831;28;41953;-75
2023/04/24 09:02:37;;;;;;;1.70;1.60;;;;;;;17.89;49.00;98004.72;5077076;28;42545;-78
2023/04/24 09:05:06;;;;;;;3.60;1.40;;;;;;;20.17;44.10;98051.84;5112097;28;41441;-82
2023/04/24 09:07:36;;;;;;;2.63;1.13;;;;;;;22.95;40.36;98065.88;5094038;28;42592;-79
2023/04/24 09:10:04;;;;;;;2.20;1.20;;;;;;;24.64;35.69;98085.28;5094393;28;43755;-79
2023/04/24 09:12:32;;;;;;;1.10;0.97;;;;;;;25.39;34.81;98073.31;5093330;28;41555;-84
2023/04/24 09:15:01;;;;;;;1.20;1.10;;;;;;;26.57;32.31;98101.28;5076783;28;40055;-76
2023/04/24 09:17:31;;;;;;;2.97;1.10;;;;;;;27.45;30.27;98107.59;5076997;28;40533;-88
2023/04/24 09:19:59;;;;;;;1.20;0.83;;;;;;;28.33;28.58;98123.78;5076480;28;41448;-80
2023/04/24 09:22:30;;;;;;;1.53;1.00;;;;;;;29.95;27.20;98130.03;5093608;28;41798;-79
2023/04/24 09:25:05;;;;;;;1.70;1.00;;;;;;;31.06;25.42;98120.69;5077094;28;40148;-82
2023/04/24 09:27:33;;;;;;;1.20;0.90;;;;;;;32.37;24.00;98135.78;5109643;28;42267;-79
2023/04/24 09:30:02;;;;;;;1.27;1.15;;;;;;;32.78;23.35;98150.03;5076457;28;41951;-81
2023/04/24 09:32:31;;;;;;;0.90;0.90;;;;;;;32.85;23.27;98147.94;5111335;28;42423;-79
2023/04/24 09:35:11;;;;;;;1.02;1.02;;;;;;;33.03;22.48;98133.88;5093171;28;42419;-79
2023/04/24 09:37:39;;;;;;;0.70;0.70;;;;;;;32.44;23.38;98136.41;5076739;28;42168;-78
2023/04/24 09:40:16;;;;;;;0.90;0.90;;;;;;;31.54;24.04;98125.69;5096466;28;43264;-79
2023/04/24 09:42:52;;;;;;;1.03;1.03;;;;;;;30.53;25.39;98110.06;5096495;28;41553;-79
2023/04/24 09:45:19;;;;;;;0.90;0.90;;;;;;;29.73;25.42;98126.25;5112118;28;41086;-81
2023/04/24 09:47:52;;;;;;;0.90;0.90;;;;;;;29.20;26.53;98102.50;5079652;28;40488;-78
2023/04/24 09:50:20;;;;;;;1.50;0.90;;;;;;;28.67;25.81;98111.44;5096164;28;41655;-78
2023/04/24 09:52:57;;;;;;;2.07;1.10;;;;;;;27.70;27.00;98117.69;5096440;28;42241;-78
2023/04/24 09:55:26;;;;;;;2.03;1.10;;;;;;;26.90;27.87;98102.97;5096943;28;39946;-77
2023/04/24 09:57:57;;;;;;;0.80;0.80;;;;;;;26.26;29.59;98096.53;5114725;28;42670;-79
2023/04/24 10:00:26;;;;;;;1.73;1.10;;;;;;;25.50;29.52;98100.81;5096561;28;42743;-82
2023/04/24 10:03:01;;;;;;;0.90;0.90;;;;;;;25.00;30.15;98073.28;5096942;28;43628;-80
2023/04/24 10:05:31;;;;;;;2.03;1.10;;;;;;;24.32;30.87;98102.22;5094243;28;41700;-81
2023/04/24 10:08:01;;;;;;;1.20;1.00;;;;;;;23.29;32.35;98082.16;5097198;28;42892;-83
2023/04/24 10:10:29;;;;;;;1.03;0.93;;;;;;;22.49;33.04;98087.78;5097128;28;42369;-83
2023/04/24 10:12:57;;;;;;;1.20;1.10;;;;;;;21.70;34.39;98081.31;5079061;28;41233;-83
2023/04/24 10:15:26;;;;;;;1.97;0.93;;;;;;;21.43;35.44;98080.06;5096961;28;41285;-85
2023/04/24 10:17:54;;;;;;;1.30;1.20;;;;;;;21.59;35.46;98073.69;5078710;28;41355;-79
2023/04/24 10:20:26;;;;;;;4.70;1.40;;;;;;;21.52;35.23;98025.06;5114773;28;44011;-80
2023/04/24 10:22:55;;;;;;;1.47;1.37;;;;;;;22.16;34.96;98090.06;5079344;28;41208;-79
2023/04/24 10:25:24;;;;;;;2.97;1.33;;;;;;;22.77;33.98;98090.59;5079422;28;40379;-80
2023/04/24 10:27:57;;;;;;;1.63;1.23;;;;;;;22.90;33.60;98095.31;5096368;28;42166;-80
2023/04/24 10:30:24;;;;;;;1.43;1.33;;;;;;;23.62;32.43;98114.03;5079702;28;42898;-80
2023/04/24 10:32:52;;;;;;;1.73;1.30;;;;;;;23.07;31.28;98112.09;5079744;28;41326;-79
2023/04/24 10:35:22;;;;;;;1.53;1.30;;;;;;;22.43;31.46;98107.44;5096439;28;40151;-81
2023/04/24 10:37:55;;;;;;;1.37;1.27;;;;;;;21.63;33.50;98099.25;5096007;28;42219;-85
2023/04/24 10:40:27;;;;;;;2.13;1.00;;;;;;;21.03;35.27;98107.31;5095983;28;42039;-80
2023/04/24 10:42:55;;;;;;;1.40;1.13;;;;;;;20.57;35.63;98103.78;5079778;28;41139;-81
2023/04/24 10:45:24;;;;;;;2.47;1.20;;;;;;;20.11;37.25;98102.81;5096016;28;39705;-80
2023/04/24 10:50:46;;;;;;;1.60;1.50;;;;;;;19.48;37.24;98117.03;5094568;28;42943;-82
2023/04/24 10:53:17;;;;;;;2.90;1.30;;;;;;;18.87;38.28;98095.09;5095625;28;41500;-76
2023/04/24 10:55:47;;;;;;;2.17;1.60;;;;;;;18.41;38.46;98098.34;5079437;28;40224;-78
2023/04/24 10:58:16;;;;;;;3.70;1.40;;;;;;;18.06;39.65;98100.22;5095970;28;42028;-77
2023/04/24 11:00:45;;;;;;;4.23;1.63;;;;;;;17.90;39.95;98102.84;5078897;28;42978;-81
2023/04/24 11:03:28;;;;;;;1.33;1.23;;;;;;;18.30;40.60;98111.00;5078894;28;41908;-79
2023/04/24 11:06:01;;;;;;;1.57;1.47;;;;;;;19.12;39.22;98121.94;5112250;28;41843;-84
2023/04/24 11:08:32;;;;;;;2.03;1.37;;;;;;;19.79;38.26;98125.22;5113930;28;42431;-82
2023/04/24 11:11:03;;;;;;;1.50;1.40;;;;;;;20.24;36.86;98132.66;5110566;28;42794;-83
2023/04/24 11:14:02;;;;;;;1.30;1.20;;;;;;;20.18;36.97;98142.25;5078572;28;41315;-79
2023/04/24 11:16:32;;;;;;;1.77;1.20;;;;;;;19.85;37.33;98132.63;5095158;28;40593;-79
2023/04/24 11:19:06;;;;;;;1.47;1.23;;;;;;;19.56;37.50;98135.84;5095472;28;41458;-80
2023/04/24 11:21:41;;;;;;;1.67;1.23;;;;;;;19.02;38.02;98112.22;5092011;28;43556;-78
2023/04/24 11:24:28;;;;;;;2.20;1.20;;;;;;;18.62;39.43;98121.03;5078511;28;41264;-78
2023/04/24 11:26:58;;;;;;;2.30;1.40;;;;;;;18.54;40.06;98128.22;5072334;28;40739;-79
2023/04/24 11:29:44;;;;;;;2.50;1.27;;;;;;;18.81;39.94;98102.94;5093636;28;42750;-77
2023/04/24 11:32:19;;;;;;;1.70;1.60;;;;;;;19.09;39.41;98111.53;5095656;28;43229;-78
2023/04/24 11:34:48;;;;;;;2.00;1.53;;;;;;;18.90;39.60;98131.50;5094997;28;42422;-80
2023/04/24 11:37:16;;;;;;;3.70;1.27;;;;;;;18.65;40.58;98125.25;5078506;28;40959;-82
2023/04/24 11:39:46;;;;;;;1.40;1.30;;;;;;;18.26;40.92;98135.66;5095198;28;41554;-85
2023/04/24 11:42:15;;;;;;;1.93;1.33;;;;;;;17.97;41.37;98138.69;5095916;28;41695;-84
2023/04/24 11:44:44;;;;;;;1.90;1.77;;;;;;;17.79;42.47;98137.94;5095056;28;42190;-87
2023/04/24 11:47:12;;;;;;;2.37;1.30;;;;;;;17.69;42.65;98131.81;5078309;28;41275;-81
2023/04/24 11:49:40;;;;;;;1.50;1.40;;;;;;;17.69;42.53;98131.81;5095015;28;43028;-83
2023/04/24 11:52:07;;;;;;;2.53;1.60;;;;;;;17.55;42.85;98114.50;5095121;28;42463;-79
2023/04/24 11:54:37;;;;;;;1.80;1.63;;;;;;;18.04;42.19;98137.06;5113104;28;43730;-83